Airfield :
LOGIN :

Register | Disclaimer

   EN    FR    IT 

 










Legend :    VFR   Marginal VFR   IFR   Intensive IFR   Very Intensive IFR
Visi :
Ceiling :
>= 8 km
>= 3000ft
5 to 8 km
1000 to 3000 ft
1500m to 5 km
500 to 1000 ft
800 to 1500m
200 to 500 ft
< 800m
< 200 ft
Symbols :   Thunderstorms  Fog  Heavy snow  Heavy precipitations  Wind > 20 kt
SIGMETs :     Misc.  Thunderstorms  Icing  Turbulence  Mountain Waves  Volcanic Ashes






- Airport Elevation : 1367 ft
- IATA code : FDH


EDNY - Friedrichshafen

CURRENT METAR :
  • 280720Z 05006KT 6000 OVC004 M01/M01 Q1019

EXPIRED METARs :
  • 280650Z 05005KT 4000 BR OVC004 M01/M01 Q1019
  • 280620Z AUTO 06005KT 9999 // OVC004/// M01/M01 Q1019
  • 280550Z AUTO 04003KT 350V080 9999 // OVC003/// M01/M01 Q1019
  • 280520Z AUTO VRB02KT 7000 // OVC003/// M01/M01 Q1019
  • 280450Z AUTO VRB03KT 9000 // OVC003/// M01/M01 Q1019

TAF TAF EDNY
Valid from the 28 at 06:00 until the 29 at 06:00 UTC


280500Z 2806/2906 03007KT 6000 OVC004
PROB40
TEMPO 2806/2808 1000 BR OVC001
PROB30
TEMPO 2808/2810 4000 BR
BECMG 2808/2811 OVC006
TEMPO 2811/2821 SCT008
TEMPO 2821/2906 BKN010



MET'MAP, your aeronautical weather chart ! - Copyright ORBIFLY December 2007 - Disclaimer

ORBIFLY MET'MAP TEAM :

Programming & Development : Alexandra Zaïnal
Concept & original design : Baudouin d'Aumeries
Assistance for programming : Marc-Olivier Méhu
Technical & hardware support : Manuel Goepfert

Contact : metmap@orbifly.com




SOURCES & CREDITS :

   NOAA